createdAt,value
2022-12-22T00:00:54.717Z,0.70
2022-12-22T00:06:15.832Z,0.65
2022-12-22T00:11:37.689Z,0.82
2022-12-22T00:16:58.927Z,0.62
2022-12-22T00:22:23.902Z,0.94
2022-12-22T00:27:49.396Z,0.85
2022-12-22T00:33:10.306Z,0.87
2022-12-22T00:38:38.878Z,0.83
2022-12-22T00:43:59.998Z,0.86
2022-12-22T00:49:21.334Z,0.87
2022-12-22T00:54:42.556Z,0.75
2022-12-22T01:00:05.028Z,0.54
2022-12-22T01:05:26.480Z,0.48
2022-12-22T01:10:47.678Z,0.36
2022-12-22T01:16:08.746Z,0.76
2022-12-22T01:21:30.162Z,0.67
2022-12-22T01:26:51.425Z,0.81
2022-12-22T01:32:12.996Z,0.60
2022-12-22T01:37:34.064Z,1.07
2022-12-22T01:42:55.221Z,1.09
2022-12-22T01:48:16.526Z,1.13
2022-12-22T01:53:41.732Z,1.03
2022-12-22T01:59:06.760Z,0.85
2022-12-22T02:04:28.518Z,0.65
2022-12-22T02:10:13.173Z,0.95
2022-12-22T02:15:46.352Z,0.72
2022-12-22T02:21:12.673Z,0.54
2022-12-22T02:26:50.442Z,0.66
2022-12-22T02:32:11.705Z,0.89
2022-12-22T02:37:50.867Z,0.93
2022-12-22T02:43:14.977Z,0.97
2022-12-22T02:48:39.169Z,1.03
2022-12-22T02:54:00.753Z,0.99
2022-12-22T02:59:21.676Z,0.75
2022-12-22T03:04:42.639Z,0.90
2022-12-22T03:10:03.617Z,0.89
2022-12-22T03:15:25.612Z,0.83
2022-12-22T03:20:46.837Z,0.88
2022-12-22T03:25:55.778Z,0.65
2022-12-22T03:31:02.691Z,0.76
2022-12-22T03:36:07.314Z,0.58
2022-12-22T03:41:29.839Z,0.39
2022-12-22T03:46:32.447Z,0.42
2022-12-22T03:51:37.827Z,0.49
2022-12-22T03:56:41.450Z,0.70
2022-12-22T04:01:52.793Z,0.69
2022-12-22T04:06:55.536Z,0.76
2022-12-22T04:12:16.644Z,0.64
2022-12-22T04:17:19.212Z,0.42
2022-12-22T04:22:21.710Z,0.69
2022-12-22T04:27:24.395Z,0.79
2022-12-22T04:32:26.929Z,0.69
2022-12-22T04:37:29.552Z,0.49
2022-12-22T04:42:32.102Z,0.61
2022-12-22T04:47:34.895Z,0.65
2022-12-22T04:52:37.445Z,0.67
2022-12-22T04:57:41.059Z,0.55
2022-12-22T05:02:43.978Z,0.49
2022-12-22T05:07:46.591Z,0.68
2022-12-22T05:12:54.996Z,0.67
2022-12-22T05:17:58.513Z,0.72
2022-12-22T05:23:01.189Z,0.65
2022-12-22T05:28:03.992Z,0.51
2022-12-22T05:33:06.609Z,0.59
2022-12-22T05:38:09.218Z,0.79
2022-12-22T05:43:11.742Z,0.70
2022-12-22T05:48:14.299Z,0.69
2022-12-22T05:53:16.801Z,0.69
2022-12-22T05:58:19.734Z,0.38
2022-12-22T06:03:22.432Z,0.43
2022-12-22T06:08:25.836Z,0.51
2022-12-22T06:13:28.400Z,0.42
2022-12-22T06:18:31.018Z,0.56
2022-12-22T06:23:33.752Z,0.70
2022-12-22T06:28:36.312Z,0.88
2022-12-22T06:33:38.931Z,0.49
2022-12-22T06:38:41.551Z,0.78
2022-12-22T06:43:44.092Z,0.83
2022-12-22T06:48:46.605Z,0.81
2022-12-22T06:53:49.231Z,0.96
2022-12-22T06:58:51.832Z,0.83
2022-12-22T07:03:54.502Z,0.77
2022-12-22T07:08:57.134Z,0.83
2022-12-22T07:13:59.738Z,0.80
2022-12-22T07:19:02.263Z,0.91
2022-12-22T07:24:05.275Z,1.10
2022-12-22T07:29:07.914Z,1.02
2022-12-22T07:34:10.472Z,1.25
2022-12-22T07:39:13.387Z,1.54
2022-12-22T07:44:15.918Z,1.50
2022-12-22T07:49:37.160Z,1.23
2022-12-22T07:54:42.142Z,1.38
2022-12-22T07:59:45.496Z,1.20
2022-12-22T08:04:48.133Z,1.03
2022-12-22T08:09:50.808Z,0.85
2022-12-22T08:14:53.315Z,1.13
2022-12-22T08:19:56.202Z,0.91
2022-12-22T08:24:59.141Z,0.95
2022-12-22T08:30:02.530Z,1.06
2022-12-22T08:35:08.661Z,1.14
2022-12-22T08:40:32.255Z,1.46
2022-12-22T08:45:35.137Z,1.43
2022-12-22T08:50:37.928Z,1.28
2022-12-22T08:55:40.531Z,1.46
2022-12-22T09:00:43.210Z,1.23
2022-12-22T09:05:45.954Z,1.26
2022-12-22T09:10:48.567Z,1.46
2022-12-22T09:15:51.094Z,1.31
2022-12-22T09:20:56.591Z,1.22
2022-12-22T09:25:59.430Z,1.22
2022-12-22T09:31:02.212Z,1.12
2022-12-22T09:36:09.330Z,1.08
2022-12-22T09:41:39.536Z,1.00
2022-12-22T09:46:42.408Z,1.08
2022-12-22T09:51:52.432Z,1.21
2022-12-22T09:56:55.785Z,0.98
2022-12-22T10:02:19.645Z,1.03
2022-12-22T10:07:34.458Z,1.12
2022-12-22T10:12:37.836Z,1.37
2022-12-22T10:17:40.539Z,1.54
2022-12-22T10:22:55.484Z,1.24
2022-12-22T10:28:00.500Z,1.38
2022-12-22T10:33:05.990Z,1.53
2022-12-22T10:38:22.614Z,1.49
2022-12-22T10:43:28.424Z,1.41
2022-12-22T10:48:36.541Z,1.80
2022-12-22T10:53:50.102Z,1.90
2022-12-22T10:59:06.006Z,1.92
2022-12-22T11:04:26.255Z,1.86
2022-12-22T11:09:34.160Z,1.56
2022-12-22T11:14:57.591Z,1.40
2022-12-22T11:20:06.143Z,0.95
2022-12-22T11:25:27.125Z,1.26
2022-12-22T11:30:51.058Z,1.23
2022-12-22T11:36:05.166Z,1.32
2022-12-22T11:41:20.031Z,1.49
2022-12-22T11:46:34.764Z,1.24
2022-12-22T11:52:28.053Z,1.12
2022-12-22T11:58:01.015Z,1.00
2022-12-22T12:03:18.585Z,1.16
2022-12-22T12:08:34.733Z,1.02
2022-12-22T12:13:45.782Z,0.86
2022-12-22T12:19:13.259Z,0.78
2022-12-22T12:24:51.564Z,1.05
2022-12-22T12:30:35.634Z,1.07
2022-12-22T12:35:31.864Z,1.13
2022-12-22T12:41:01.653Z,1.19
2022-12-22T12:46:42.172Z,1.22
2022-12-22T12:51:50.920Z,1.02
2022-12-22T12:57:06.515Z,1.18
2022-12-22T13:02:27.724Z,1.16
2022-12-22T13:08:24.495Z,1.09
2022-12-22T13:13:27.001Z,1.21
2022-12-22T13:18:29.535Z,0.91
2022-12-22T13:23:58.435Z,0.94
2022-12-22T13:29:08.101Z,1.17
2022-12-22T13:34:23.248Z,1.03
2022-12-22T13:39:25.983Z,0.80
2022-12-22T13:44:31.520Z,0.90
2022-12-22T13:50:07.079Z,0.86
2022-12-22T13:54:58.129Z,1.07
2022-12-22T14:00:00.741Z,1.26
2022-12-22T14:05:09.347Z,1.23
2022-12-22T14:10:12.932Z,1.27
2022-12-22T14:15:19.265Z,1.31
2022-12-22T14:20:43.020Z,1.40
2022-12-22T14:25:48.270Z,1.41
2022-12-22T14:30:54.023Z,1.38
2022-12-22T14:36:26.234Z,1.37
2022-12-22T14:41:44.487Z,1.15
2022-12-22T14:47:12.517Z,0.98
2022-12-22T14:52:39.588Z,0.82
2022-12-22T14:57:43.128Z,0.57
2022-12-22T15:02:54.262Z,0.76
2022-12-22T15:08:08.052Z,0.99
2022-12-22T15:13:22.763Z,1.04
2022-12-22T15:18:28.187Z,1.21
2022-12-22T15:23:30.746Z,1.14
2022-12-22T15:28:33.640Z,1.01
2022-12-22T15:33:36.228Z,1.20
2022-12-22T15:38:39.916Z,1.23
2022-12-22T15:43:59.343Z,1.37
2022-12-22T15:49:02.818Z,1.23
2022-12-22T15:54:05.497Z,1.16
2022-12-22T15:59:20.427Z,1.12
2022-12-22T16:04:23.893Z,1.06
2022-12-22T16:09:39.638Z,0.96
2022-12-22T16:14:50.474Z,0.55
2022-12-22T16:19:54.041Z,0.83
2022-12-22T16:24:56.842Z,0.97
2022-12-22T16:29:59.503Z,1.25
2022-12-22T16:35:11.137Z,1.32
2022-12-22T16:40:13.808Z,1.26
2022-12-22T16:45:23.153Z,1.00
2022-12-22T16:50:32.979Z,1.17
2022-12-22T16:55:36.113Z,1.49
2022-12-22T17:00:41.007Z,1.65
2022-12-22T17:05:59.449Z,1.82
2022-12-22T17:11:10.361Z,1.60
2022-12-22T17:16:22.274Z,1.52
2022-12-22T17:21:25.661Z,1.24
2022-12-22T17:26:28.212Z,1.50
2022-12-22T17:31:31.128Z,1.69
2022-12-22T17:36:37.669Z,1.56
2022-12-22T17:41:41.305Z,1.58
2022-12-22T17:46:44.310Z,1.61
2022-12-22T17:51:47.421Z,1.61
2022-12-22T17:56:50.273Z,1.68
2022-12-22T18:01:53.017Z,1.85
2022-12-22T18:06:56.144Z,1.61
2022-12-22T18:11:58.736Z,1.42
2022-12-22T18:17:01.365Z,1.60
2022-12-22T18:22:04.085Z,1.46
2022-12-22T18:27:12.397Z,1.47
2022-12-22T18:32:23.824Z,1.58
2022-12-22T18:37:29.944Z,1.58
2022-12-22T18:42:34.546Z,1.69
2022-12-22T18:47:37.128Z,1.89
2022-12-22T18:52:39.931Z,1.83
2022-12-22T18:57:45.703Z,1.70
2022-12-22T19:02:50.738Z,1.97
2022-12-22T19:07:54.468Z,1.72
2022-12-22T19:12:57.916Z,1.87
2022-12-22T19:18:00.521Z,1.82
2022-12-22T19:23:03.163Z,1.88
2022-12-22T19:28:14.855Z,1.73
2022-12-22T19:33:27.391Z,1.91
2022-12-22T19:38:30.838Z,1.72
2022-12-22T19:43:33.720Z,1.68
2022-12-22T19:48:36.295Z,1.64
2022-12-22T19:53:38.942Z,1.74
2022-12-22T19:58:41.831Z,1.71
2022-12-22T20:03:44.541Z,1.74
2022-12-22T20:08:47.398Z,1.73
2022-12-22T20:13:50.123Z,1.78
2022-12-22T20:18:52.734Z,1.82
2022-12-22T20:23:58.413Z,1.92
2022-12-22T20:29:01.007Z,1.91
2022-12-22T20:34:03.559Z,1.77
2022-12-22T20:39:12.209Z,1.76
2022-12-22T20:44:14.835Z,1.78
2022-12-22T20:49:17.403Z,1.67
2022-12-22T20:54:20.442Z,1.65
2022-12-22T20:59:24.277Z,1.62
2022-12-22T21:04:26.859Z,1.60
2022-12-22T21:09:30.792Z,1.72
2022-12-22T21:14:33.536Z,1.73
2022-12-22T21:19:36.135Z,1.46
2022-12-22T21:24:38.741Z,1.57
2022-12-22T21:29:41.322Z,1.66
2022-12-22T21:34:44.069Z,1.49
2022-12-22T21:39:46.769Z,1.67
2022-12-22T21:44:50.661Z,1.80
2022-12-22T21:49:53.206Z,1.88
2022-12-22T21:54:55.808Z,1.81
2022-12-22T21:59:58.464Z,1.86
2022-12-22T22:05:00.988Z,1.75
2022-12-22T22:10:03.837Z,1.77
2022-12-22T22:15:08.039Z,1.84
2022-12-22T22:20:15.141Z,1.80
2022-12-22T22:25:19.273Z,1.34
2022-12-22T22:30:26.054Z,1.39
2022-12-22T22:35:28.900Z,1.26
2022-12-22T22:40:31.542Z,1.28
2022-12-22T22:45:37.168Z,1.38
2022-12-22T22:50:42.682Z,1.61
2022-12-22T22:55:45.239Z,1.81
2022-12-22T23:00:48.034Z,1.91
2022-12-22T23:05:50.629Z,1.90
2022-12-22T23:10:53.279Z,1.80
2022-12-22T23:16:01.807Z,1.75
2022-12-22T23:21:06.809Z,2.03
2022-12-22T23:26:09.419Z,2.01
2022-12-22T23:31:12.794Z,2.02
2022-12-22T23:36:15.684Z,1.83
2022-12-22T23:41:18.882Z,1.71
2022-12-22T23:46:21.847Z,1.79
2022-12-22T23:51:27.360Z,1.75
2022-12-22T23:56:30.525Z,1.87
